Time;durP1;ratioP1;P1;durP2;ratioP2;P2;SDS_P1;SDS_P2;PMS_P1;PMS_P2;Temp;Humidity;BMP_temperature;BMP_pressure;BME280_temperature;BME280_humidity;BME280_pressure;Samples;Min_cycle;Max_cycle;Signal;HPM_P1;HPM_P2
2021/12/25 00:00:04;;;;;;;16.70;8.63;;;;;;;7.20;nan;99743.03;5043490;28;20041;-76
2021/12/25 00:02:49;;;;;;;12.73;8.30;;;;;;;7.24;nan;99762.53;5039339;28;20045;-76
2021/12/25 00:05:35;;;;;;;18.75;9.10;;;;;;;7.15;nan;99749.94;5038219;28;20045;-75
2021/12/25 00:08:28;;;;;;;17.42;8.55;;;;;;;7.20;nan;99750.88;5044110;28;20683;-76
2021/12/25 00:11:14;;;;;;;16.20;8.45;;;;;;;7.24;nan;99764.34;5046179;28;20124;-76
2021/12/25 00:14:00;;;;;;;16.15;8.43;;;;;;;7.20;nan;99761.34;5046758;28;20084;-75
2021/12/25 00:16:46;;;;;;;14.73;8.38;;;;;;;7.15;nan;99763.84;5042994;28;20045;-75
2021/12/25 00:19:32;;;;;;;15.32;8.38;;;;;;;7.15;nan;99755.19;5043723;28;20639;-75
2021/12/25 00:22:17;;;;;;;15.93;8.20;;;;;;;7.12;nan;99748.56;5045755;28;20044;-76
2021/12/25 00:25:03;;;;;;;15.15;8.23;;;;;;;7.20;nan;99771.03;5036644;28;20033;-75
2021/12/25 00:28:03;;;;;;;15.32;8.43;;;;;;;7.13;nan;99755.38;5043515;28;20037;-76
2021/12/25 00:33:59;;;;;;;13.38;7.60;;;;;;;7.14;nan;99746.53;5045906;28;19913;-75
2021/12/25 00:36:45;;;;;;;11.65;6.60;;;;;;;7.24;nan;99762.53;5042214;28;20816;-74
2021/12/25 00:39:32;;;;;;;15.07;7.40;;;;;;;7.31;nan;99756.44;5045328;28;20064;-76
2021/12/25 00:42:18;;;;;;;13.32;6.70;;;;;;;7.31;nan;99767.69;5042824;28;20029;-75
2021/12/25 00:45:04;;;;;;;11.07;6.53;;;;;;;7.36;nan;99774.91;5037910;28;20090;-76
2021/12/25 00:47:50;;;;;;;13.85;6.55;;;;;;;7.30;nan;99765.28;5051272;28;20095;-76
2021/12/25 00:50:35;;;;;;;13.02;6.32;;;;;;;7.39;nan;99779.69;5037585;28;20049;-76
2021/12/25 00:53:21;;;;;;;10.93;5.65;;;;;;;7.37;nan;99758.94;5038320;28;20045;-75
2021/12/25 00:56:07;;;;;;;10.65;6.32;;;;;;;7.39;nan;99759.53;5047797;28;20040;-74
2021/12/25 00:58:53;;;;;;;10.65;5.40;;;;;;;7.48;nan;99770.53;5039796;28;20048;-76
2021/12/25 01:01:38;;;;;;;10.23;5.65;;;;;;;7.52;nan;99773.50;5050830;28;20030;-76
2021/12/25 01:04:25;;;;;;;11.93;5.30;;;;;;;7.51;nan;99774.53;5043075;28;20048;-76
2021/12/25 01:07:11;;;;;;;10.82;5.72;;;;;;;7.60;nan;99788.94;5038329;28;20053;-75
2021/12/25 01:09:56;;;;;;;9.93;5.60;;;;;;;7.48;nan;99775.75;5042471;28;20041;-75
2021/12/25 01:13:30;;;;;;;10.20;5.85;;;;;;;7.60;nan;99791.56;5031749;28;20400;-75
2021/12/25 01:33:33;;;;;;;11.50;5.78;;;;;;;7.55;nan;99771.25;5037704;28;20033;-76
2021/12/25 01:39:17;;;;;;;11.30;6.25;;;;;;;7.48;nan;99769.72;5048993;28;20047;-76
2021/12/25 01:47:54;;;;;;;11.23;5.70;;;;;;;7.29;nan;99764.50;5049179;28;20120;-76
2021/12/25 01:50:40;;;;;;;12.10;5.75;;;;;;;7.26;nan;99769.38;5032389;28;20136;-75
2021/12/25 01:53:26;;;;;;;9.93;5.55;;;;;;;7.23;nan;99766.19;5036032;28;20424;-76
2021/12/25 01:56:12;;;;;;;10.82;6.15;;;;;;;7.20;nan;99763.19;5035714;28;20098;-75
2021/12/25 01:58:58;;;;;;;10.02;5.68;;;;;;;7.26;nan;99769.38;5039475;28;20040;-74
2021/12/25 02:01:44;;;;;;;10.68;5.85;;;;;;;7.17;nan;99756.56;5043904;28;20025;-76
2021/12/25 02:04:29;;;;;;;11.18;5.88;;;;;;;7.23;nan;99774.03;5039394;28;20033;-75
2021/12/25 02:07:15;;;;;;;10.07;6.00;;;;;;;7.26;nan;99775.41;5036408;28;20124;-75
2021/12/25 02:10:03;;;;;;;13.40;6.15;;;;;;;7.26;nan;99783.28;5035912;28;20091;-75
2021/12/25 02:12:49;;;;;;;11.27;6.60;;;;;;;7.24;nan;99786.09;5037865;28;20128;-76
2021/12/25 02:15:36;;;;;;;12.27;6.68;;;;;;;7.27;nan;99790.09;5037544;28;20440;-76
2021/12/25 02:18:31;;;;;;;13.98;6.70;;;;;;;7.24;nan;99788.72;5046255;28;20032;-74
2021/12/25 02:21:21;;;;;;;12.70;6.63;;;;;;;7.18;nan;99778.31;5033907;28;20041;-75
2021/12/25 02:24:11;;;;;;;11.18;6.30;;;;;;;7.23;nan;99794.16;5039101;28;20064;-75
2021/12/25 02:26:57;;;;;;;13.20;6.38;;;;;;;7.13;nan;99778.94;5045299;28;20037;-75
2021/12/25 02:29:43;;;;;;;10.57;5.60;;;;;;;7.16;nan;99788.19;5040930;28;20033;-76
2021/12/25 02:32:29;;;;;;;11.93;6.20;;;;;;;7.14;nan;99792.88;5032254;28;20120;-75
2021/12/25 02:35:16;;;;;;;11.32;5.63;;;;;;;7.07;nan;99779.03;5038605;28;20034;-75
2021/12/25 02:38:04;;;;;;;9.27;5.30;;;;;;;7.18;nan;99802.69;5041156;28;20051;-76
2021/12/25 02:40:50;;;;;;;8.43;5.28;;;;;;;7.07;nan;99797.38;5036492;28;20041;-77
2021/12/25 02:43:37;;;;;;;9.48;5.32;;;;;;;6.87;nan;99761.72;5035870;28;20045;-76
2021/12/25 02:46:24;;;;;;;7.68;4.75;;;;;;;7.03;nan;99787.31;5045004;28;20044;-76
2021/12/25 02:49:14;;;;;;;9.93;6.07;;;;;;;7.07;nan;99797.38;5033121;28;20037;-76
2021/12/25 02:52:00;;;;;;;10.07;5.32;;;;;;;6.96;nan;99773.47;5037936;28;20120;-76
2021/12/25 02:54:46;;;;;;;9.68;5.57;;;;;;;6.75;nan;99752.94;5038493;28;20047;-76
2021/12/25 02:57:32;;;;;;;10.43;5.30;;;;;;;6.99;nan;99795.81;5046408;28;20517;-76
2021/12/25 03:00:26;;;;;;;9.82;5.43;;;;;;;6.98;nan;99799.44;5050977;28;20037;-75
2021/12/25 03:03:11;;;;;;;8.57;5.38;;;;;;;6.97;nan;99801.28;5045381;28;20064;-76
2021/12/25 03:05:57;;;;;;;8.73;5.25;;;;;;;6.89;nan;99795.50;5039813;28;20037;-75
2021/12/25 03:08:44;;;;;;;9.55;5.07;;;;;;;6.93;nan;99800.09;5048493;28;20045;-75
2021/12/25 03:11:29;;;;;;;10.98;4.90;;;;;;;6.87;nan;99795.75;5044181;28;20030;-76
2021/12/25 03:14:32;;;;;;;10.75;6.28;;;;;;;6.78;nan;99787.34;5041730;28;20048;-76
2021/12/25 03:17:19;;;;;;;9.73;5.35;;;;;;;6.76;nan;99785.97;5052331;28;20440;-76
2021/12/25 03:20:07;;;;;;;13.13;5.47;;;;;;;6.80;nan;99797.63;5042419;28;20116;-76
2021/12/25 03:22:53;;;;;;;10.60;5.05;;;;;;;6.77;nan;99779.72;5042662;28;20033;-76
2021/12/25 03:25:40;;;;;;;14.13;5.47;;;;;;;6.63;nan;99765.94;5045613;28;20037;-76
2021/12/25 03:28:31;;;;;;;8.88;5.50;;;;;;;6.83;nan;99789.31;5035655;28;20113;-75
2021/12/25 03:31:20;;;;;;;8.90;4.68;;;;;;;6.87;nan;99800.16;5043124;28;20033;-76
2021/12/25 03:34:06;;;;;;;9.70;5.45;;;;;;;6.82;nan;99788.53;5050371;28;20107;-76
2021/12/25 03:36:52;;;;;;;8.93;5.38;;;;;;;6.81;nan;99784.28;5042872;28;20029;-75
2021/12/25 03:39:37;;;;;;;8.80;5.25;;;;;;;6.81;nan;99783.50;5053109;28;20037;-75
2021/12/25 03:42:23;;;;;;;10.02;5.00;;;;;;;6.84;nan;99790.91;5051018;28;20487;-76
2021/12/25 03:45:09;;;;;;;11.05;5.55;;;;;;;6.82;nan;99787.72;5039584;28;21586;-75
2021/12/25 03:48:05;;;;;;;11.25;5.60;;;;;;;6.79;nan;99781.09;5046808;28;20078;-76
2021/12/25 04:00:01;;;;;;;9.18;5.57;;;;;;;6.73;nan;99757.63;5051626;28;20036;-75
2021/12/25 04:03:09;;;;;;;13.18;5.05;;;;;;;6.77;nan;99775.28;5042121;28;20083;-75
2021/12/25 04:05:55;;;;;;;9.18;5.05;;;;;;;6.63;nan;99760.69;5043309;28;20396;-75
2021/12/25 04:08:44;;;;;;;9.35;4.60;;;;;;;6.64;nan;99762.31;5052127;28;20065;-75
2021/12/25 04:11:33;;;;;;;10.57;5.18;;;;;;;6.69;nan;99772.94;5045029;28;20037;-75
2021/12/25 04:14:19;;;;;;;;;;;;;;;6.74;nan;99774.91;5047952;28;20041;-75
2021/12/25 04:17:05;;;;;;;8.98;5.07;;;;;;;6.67;nan;99767.13;5040947;28;19917;-75
2021/12/25 04:19:51;;;;;;;8.40;5.30;;;;;;;6.65;nan;99757.88;5040552;28;20036;-74
2021/12/25 04:22:46;;;;;;;7.68;4.60;;;;;;;6.68;nan;99763.50;5042508;28;20037;-75
2021/12/25 04:25:34;;;;;;;8.23;5.40;;;;;;;6.66;nan;99764.72;5040545;28;20041;-76
2021/12/25 04:31:59;;;;;;;10.82;4.72;;;;;;;6.73;nan;99781.16;5038663;28;20038;-76
2021/12/25 04:50:17;;;;;;;8.45;4.47;;;;;;;6.80;nan;99787.94;5041363;28;20045;-76
2021/12/25 05:05:21;;;;;;;6.88;4.18;;;;;;;6.76;nan;99781.53;5039858;28;20435;-76
2021/12/25 05:08:07;;;;;;;6.03;4.07;;;;;;;6.82;nan;99795.56;5049031;28;20369;-76
2021/12/25 05:10:54;;;;;;;7.78;4.40;;;;;;;6.65;nan;99769.13;5048690;28;20564;-76
2021/12/25 05:13:40;;;;;;;7.05;4.25;;;;;;;6.85;nan;99791.72;5044020;28;20061;-77
2021/12/25 05:16:26;;;;;;;9.27;4.55;;;;;;;6.92;nan;99800.31;5045268;28;20033;-76
2021/12/25 05:19:12;;;;;;;8.73;4.18;;;;;;;6.89;nan;99790.28;5040788;28;20033;-75
2021/12/25 05:21:57;;;;;;;8.95;4.80;;;;;;;6.95;nan;99797.28;5048637;28;20055;-76
2021/12/25 05:24:43;;;;;;;8.52;3.75;;;;;;;7.00;nan;99800.84;5042903;28;20045;-76
2021/12/25 05:27:30;;;;;;;8.55;4.55;;;;;;;7.00;nan;99800.84;5043289;28;20048;-76
2021/12/25 05:30:18;;;;;;;6.43;3.95;;;;;;;7.00;nan;99795.59;5038394;28;20029;-75
2021/12/25 05:33:04;;;;;;;6.07;3.78;;;;;;;6.98;nan;99795.00;5037609;28;20069;-75
2021/12/25 05:35:50;;;;;;;8.75;4.03;;;;;;;7.13;nan;99818.22;5045189;28;20467;-76
2021/12/25 05:38:36;;;;;;;10.00;4.13;;;;;;;7.05;nan;99794.16;5038612;28;20071;-75
2021/12/25 05:41:22;;;;;;;8.90;3.90;;;;;;;7.16;nan;99811.75;5037991;28;20517;-75
2021/12/25 05:44:07;;;;;;;6.72;3.47;;;;;;;7.13;nan;99810.38;5042237;28;20075;-75
2021/12/25 05:46:54;;;;;;;6.65;4.15;;;;;;;7.10;nan;99815.25;5049600;28;20036;-75
2021/12/25 05:49:39;;;;;;;8.35;4.40;;;;;;;7.17;nan;99822.03;5051873;28;20039;-76
2021/12/25 05:52:25;;;;;;;8.88;4.40;;;;;;;7.11;nan;99816.84;5042467;28;20111;-77
2021/12/25 05:55:11;;;;;;;8.13;3.55;;;;;;;7.07;nan;99802.59;5047106;28;20037;-76
2021/12/25 05:57:57;;;;;;;6.38;3.85;;;;;;;7.13;nan;99812.19;5042723;28;20525;-76
2021/12/25 06:00:43;;;;;;;6.18;4.10;;;;;;;7.15;nan;99813.56;5047142;28;20096;-78
2021/12/25 06:03:29;;;;;;;8.30;4.20;;;;;;;7.19;nan;99824.44;5043281;28;20041;-76
2021/12/25 06:06:15;;;;;;;8.13;4.47;;;;;;;7.19;nan;99827.06;5039520;28;20048;-76
2021/12/25 06:09:01;;;;;;;6.47;3.85;;;;;;;7.09;nan;99811.84;5032447;28;20041;-78
2021/12/25 06:11:47;;;;;;;8.35;4.20;;;;;;;7.21;nan;99832.88;5045640;28;20049;-80
2021/12/25 06:14:33;;;;;;;7.80;4.68;;;;;;;7.16;nan;99824.84;5042935;28;20033;-77
2021/12/25 06:17:19;;;;;;;6.07;4.07;;;;;;;7.08;nan;99810.22;5052510;28;20037;-75
2021/12/25 06:20:06;;;;;;;5.43;3.75;;;;;;;7.17;nan;99822.03;5041867;28;20124;-76
2021/12/25 06:22:52;;;;;;;6.50;3.97;;;;;;;7.15;nan;99816.19;5039945;28;20132;-75
2021/12/25 06:25:38;;;;;;;6.22;3.80;;;;;;;7.12;nan;99818.47;5037662;28;20060;-75
2021/12/25 06:28:24;;;;;;;7.38;4.10;;;;;;;7.15;nan;99833.72;5030538;28;20118;-75
2021/12/25 06:31:10;;;;;;;11.27;3.88;;;;;;;7.17;nan;99829.09;5032998;28;20077;-74
2021/12/25 06:33:57;;;;;;;6.55;3.72;;;;;;;7.25;nan;99839.25;5032738;28;20115;-75
2021/12/25 06:36:43;;;;;;;7.03;4.00;;;;;;;7.26;nan;99853.19;5038839;28;20041;-75
2021/12/25 06:39:29;;;;;;;7.05;4.50;;;;;;;7.20;nan;99841.72;5037401;28;20047;-75
2021/12/25 06:42:15;;;;;;;6.35;4.20;;;;;;;7.20;nan;99836.50;5034070;28;20041;-75
2021/12/25 06:45:01;;;;;;;7.57;3.88;;;;;;;7.18;nan;99836.72;5041235;28;20459;-75
2021/12/25 06:47:47;;;;;;;6.57;3.95;;;;;;;7.20;nan;99834.66;5045597;28;20077;-75
2021/12/25 06:50:33;;;;;;;8.23;4.03;;;;;;;7.34;nan;99858.91;5042811;28;20446;-75
2021/12/25 06:53:18;;;;;;;7.50;4.40;;;;;;;7.23;nan;99838.69;5033549;28;20044;-73
2021/12/25 06:56:04;;;;;;;6.68;4.10;;;;;;;7.37;nan;99850.63;5041349;28;20048;-74
2021/12/25 06:58:50;;;;;;;11.35;5.45;;;;;;;7.35;nan;99847.44;5035930;28;20415;-74
2021/12/25 07:01:36;;;;;;;11.13;5.32;;;;;;;7.34;nan;99845.03;5046120;28;20037;-74
2021/12/25 07:04:22;;;;;;;9.15;5.30;;;;;;;7.43;nan;99848.97;5043993;28;20033;-75
2021/12/25 07:07:08;;;;;;;9.32;4.57;;;;;;;7.40;nan;99855.44;5042881;28;20499;-74
2021/12/25 07:09:54;;;;;;;7.90;4.43;;;;;;;7.38;nan;99861.91;5044625;28;20045;-75
2021/12/25 07:12:43;;;;;;;7.78;3.75;;;;;;;7.36;nan;99850.84;5042035;28;20033;-76
2021/12/25 07:15:29;;;;;;;7.10;3.70;;;;;;;7.42;nan;99858.66;5035278;28;20101;-76
2021/12/25 07:18:15;;;;;;;6.13;3.72;;;;;;;7.37;nan;99860.31;5036490;28;20538;-76
2021/12/25 07:21:02;;;;;;;6.22;4.13;;;;;;;7.46;nan;99870.28;5032052;28;20033;-76
2021/12/25 07:23:48;;;;;;;8.60;4.45;;;;;;;7.49;nan;99873.50;5038124;28;20064;-75
2021/12/25 07:26:34;;;;;;;10.15;4.40;;;;;;;7.44;nan;99863.66;5033814;28;21159;-74
2021/12/25 07:29:20;;;;;;;5.90;3.70;;;;;;;7.51;nan;99877.50;5036058;28;20063;-75
2021/12/25 07:32:06;;;;;;;7.72;4.18;;;;;;;7.56;nan;99874.22;5040583;28;20053;-74
2021/12/25 07:34:52;;;;;;;4.97;3.35;;;;;;;7.57;nan;99881.09;5037078;28;20121;-77
2021/12/25 07:37:38;;;;;;;6.35;4.15;;;;;;;7.60;nan;99886.66;5039165;28;20616;-75
2021/12/25 07:40:24;;;;;;;5.65;3.90;;;;;;;7.62;nan;99889.09;5039525;28;20041;-76
2021/12/25 07:43:09;;;;;;;4.90;3.22;;;;;;;7.54;nan;99876.25;5033228;28;20252;-75
2021/12/25 07:45:56;;;;;;;6.03;3.53;;;;;;;7.57;nan;99883.69;5045860;28;20120;-74
2021/12/25 07:48:43;;;;;;;7.60;3.90;;;;;;;7.63;nan;99893.28;5051446;28;20091;-76
2021/12/25 07:51:28;;;;;;;7.65;3.55;;;;;;;7.58;nan;99886.09;5052549;28;20072;-77
2021/12/25 07:54:15;;;;;;;6.25;3.88;;;;;;;7.66;nan;99905.94;5040391;28;20032;-75
2021/12/25 07:57:00;;;;;;;8.98;4.00;;;;;;;7.64;nan;99892.28;5038089;28;20057;-75
2021/12/25 07:59:46;;;;;;;9.23;5.32;;;;;;;7.60;nan;99897.16;5045289;28;20040;-74
2021/12/25 08:02:32;;;;;;;7.40;3.88;;;;;;;7.63;nan;99894.09;5043684;28;20052;-74
2021/12/25 08:05:18;;;;;;;6.47;3.78;;;;;;;7.66;nan;99905.94;5041475;28;20453;-75
2021/12/25 08:08:06;;;;;;;7.88;4.57;;;;;;;7.70;nan;99901.09;5043292;28;20043;-74
2021/12/25 08:10:52;;;;;;;7.70;4.03;;;;;;;7.66;nan;99888.44;5042286;28;20499;-73
2021/12/25 08:13:38;;;;;;;10.10;3.72;;;;;;;7.69;nan;99895.06;5038964;28;20483;-74
2021/12/25 08:16:24;;;;;;;6.55;3.58;;;;;;;7.67;nan;99884.00;5049075;28;20037;-76
2021/12/25 08:19:09;;;;;;;7.35;3.80;;;;;;;7.68;nan;99885.56;5042293;28;20045;-74
2021/12/25 08:21:55;;;;;;;7.63;3.28;;;;;;;7.73;nan;99898.81;5046345;28;20142;-75
2021/12/25 08:24:41;;;;;;;7.35;4.00;;;;;;;7.74;nan;99902.25;5039874;28;20033;-76
2021/12/25 08:27:27;;;;;;;9.57;3.75;;;;;;;7.77;nan;99902.63;5040899;28;20068;-76
2021/12/25 08:30:19;;;;;;;5.97;4.05;;;;;;;7.81;nan;99914.28;5042014;28;20061;-76
2021/12/25 08:33:05;;;;;;;6.32;4.13;;;;;;;7.81;nan;99914.28;5039898;28;20037;-75
2021/12/25 08:35:50;;;;;;;8.75;4.38;;;;;;;7.60;nan;99891.13;5044940;28;20491;-75
2021/12/25 08:38:36;;;;;;;7.32;4.70;;;;;;;7.72;nan;99905.09;5045386;28;20681;-75
2021/12/25 08:41:26;;;;;;;7.38;4.65;;;;;;;7.77;nan;99909.69;5044127;28;20040;-76
2021/12/25 08:47:16;;;;;;;6.65;4.18;;;;;;;7.80;nan;99906.63;5041023;28;20038;-77
2021/12/25 08:50:10;;;;;;;8.55;4.20;;;;;;;7.78;nan;99906.84;5036332;28;20045;-76
2021/12/25 08:52:56;;;;;;;9.68;4.43;;;;;;;7.72;nan;99905.09;5039699;28;20041;-77
2021/12/25 08:55:42;;;;;;;7.35;4.40;;;;;;;7.81;nan;99903.78;5039003;28;20037;-77
2021/12/25 08:58:34;;;;;;;8.98;4.43;;;;;;;7.82;nan;99899.34;5035030;28;20120;-76
2021/12/25 09:01:19;;;;;;;8.70;4.40;;;;;;;7.80;nan;99901.38;5036576;28;20036;-75
2021/12/25 09:04:06;;;;;;;7.68;4.72;;;;;;;7.84;nan;99902.56;5037788;28;20094;-76
2021/12/25 09:06:52;;;;;;;8.10;4.55;;;;;;;7.81;nan;99892.50;5040767;28;20065;-74
2021/12/25 09:09:38;;;;;;;9.25;4.80;;;;;;;7.82;nan;99889.66;5042959;28;20060;-71
2021/12/25 09:12:25;;;;;;;7.10;4.95;;;;;;;7.87;nan;99902.09;5043668;28;20033;-72
2021/12/25 09:15:12;;;;;;;9.48;4.65;;;;;;;7.93;nan;99900.44;5038302;28;20492;-72
2021/12/25 09:17:58;;;;;;;7.93;5.05;;;;;;;7.92;nan;99889.13;5040067;28;20052;-72
2021/12/25 09:20:44;;;;;;;8.15;4.82;;;;;;;7.67;nan;99844.69;5040389;28;20120;-70
2021/12/25 09:23:29;;;;;;;10.52;4.72;;;;;;;7.98;nan;99879.59;5041879;28;20488;-71
2021/12/25 09:26:17;;;;;;;8.18;4.90;;;;;;;8.04;nan;99884.75;5048043;28;20034;-69
2021/12/25 09:29:04;;;;;;;7.25;4.72;;;;;;;8.05;nan;99882.94;5034830;28;20117;-70
2021/12/25 09:31:49;;;;;;;9.05;4.80;;;;;;;7.99;nan;99863.63;5034021;28;20033;-69
2021/12/25 09:34:35;;;;;;;7.20;4.38;;;;;;;8.10;nan;99878.63;5047720;28;20048;-70
2021/12/25 09:37:21;;;;;;;8.98;4.93;;;;;;;8.09;nan;99863.13;5039779;28;20139;-69
2021/12/25 09:40:09;;;;;;;11.75;4.60;;;;;;;8.19;nan;99878.31;5038490;28;20041;-69
2021/12/25 09:42:55;;;;;;;7.28;4.40;;;;;;;8.20;nan;99867.63;5042875;28;20033;-68
2021/12/25 09:45:41;;;;;;;8.95;4.78;;;;;;;8.21;nan;99866.63;5043603;28;20068;-69
2021/12/25 09:48:27;;;;;;;7.93;4.70;;;;;;;8.22;nan;99856.91;5040896;28;20119;-70
2021/12/25 09:51:13;;;;;;;10.93;5.25;;;;;;;8.26;nan;99848.38;5045109;28;20029;-70
2021/12/25 09:54:08;;;;;;;9.43;5.63;;;;;;;8.19;nan;99847.66;5045640;28;20491;-69
2021/12/25 09:56:56;;;;;;;10.13;6.15;;;;;;;8.21;nan;99839.56;5039915;28;20038;-69
2021/12/25 09:59:42;;;;;;;9.25;5.35;;;;;;;8.33;nan;99845.63;5047990;28;20037;-70
2021/12/25 10:02:29;;;;;;;8.80;4.93;;;;;;;8.27;nan;99828.97;5041700;28;20041;-68
2021/12/25 10:05:33;;;;;;;8.48;5.40;;;;;;;8.42;nan;99840.91;5041908;28;20045;-69
2021/12/25 10:08:24;;;;;;;10.82;5.13;;;;;;;8.44;nan;99826.56;5046270;28;20175;-69
2021/12/25 10:11:09;;;;;;;8.57;5.22;;;;;;;8.37;nan;99817.16;5047672;28;20043;-69
2021/12/25 10:13:55;;;;;;;8.65;5.28;;;;;;;8.48;nan;99826.91;5043087;28;20056;-70
2021/12/25 10:16:41;;;;;;;7.80;5.03;;;;;;;8.42;nan;99820.72;5046567;28;20060;-71
2021/12/25 10:19:31;;;;;;;8.18;4.38;;;;;;;8.52;nan;99839.38;5042174;28;20037;-72
2021/12/25 10:22:16;;;;;;;8.00;4.85;;;;;;;8.51;nan;99827.25;5044354;28;20029;-72
2021/12/25 10:25:10;;;;;;;9.35;5.35;;;;;;;8.56;nan;99831.03;5041587;28;20029;-70
2021/12/25 10:28:02;;;;;;;8.45;5.10;;;;;;;8.51;nan;99826.47;5046919;28;20033;-71
2021/12/25 10:30:58;;;;;;;7.78;5.15;;;;;;;8.48;nan;99819.84;5048361;28;20031;-73
2021/12/25 10:33:50;;;;;;;8.38;5.30;;;;;;;8.56;nan;99829.19;5041042;28;20030;-71
2021/12/25 10:36:37;;;;;;;9.50;5.13;;;;;;;8.48;nan;99825.09;5043440;28;20052;-71
2021/12/25 10:39:27;;;;;;;10.50;5.07;;;;;;;8.46;nan;99819.25;5043024;28;20037;-71
2021/12/25 10:42:20;;;;;;;11.00;4.97;;;;;;;8.43;nan;99809.22;5039745;28;20120;-71
2021/12/25 10:45:13;;;;;;;12.07;5.53;;;;;;;8.43;nan;99813.66;5043970;28;20163;-73
2021/12/25 10:48:09;;;;;;;10.45;4.75;;;;;;;8.38;nan;99803.00;5046936;28;20075;-74
2021/12/25 10:50:57;;;;;;;10.38;4.60;;;;;;;8.38;nan;99800.38;5044033;28;20037;-71
2021/12/25 10:53:51;;;;;;;7.97;4.18;;;;;;;8.36;nan;99805.88;5047153;28;20045;-71
2021/12/25 10:56:38;;;;;;;9.80;4.80;;;;;;;8.37;nan;99796.97;5048732;28;20049;-71
2021/12/25 10:59:24;;;;;;;9.25;4.90;;;;;;;8.34;nan;99796.63;5040259;28;20454;-71
2021/12/25 11:02:40;;;;;;;9.80;5.13;;;;;;;8.28;nan;99787.81;5046567;28;20049;-71
2021/12/25 11:05:43;;;;;;;7.60;4.88;;;;;;;8.23;nan;99772.75;5048154;28;20045;-71
2021/12/25 11:08:29;;;;;;;10.15;5.95;;;;;;;8.24;nan;99782.22;5044394;28;20526;-72
2021/12/25 11:11:17;;;;;;;8.52;5.50;;;;;;;8.22;nan;99775.59;5044188;28;20045;-70
2021/12/25 11:14:07;;;;;;;9.93;5.20;;;;;;;8.29;nan;99784.97;5044386;28;20029;-70
2021/12/25 11:16:53;;;;;;;11.35;5.18;;;;;;;8.22;nan;99775.59;5045889;28;20110;-71
2021/12/25 11:19:56;;;;;;;9.13;4.85;;;;;;;8.27;nan;99787.00;5048448;28;20066;-73
2021/12/25 11:22:49;;;;;;;9.25;4.97;;;;;;;8.22;nan;99768.53;5051869;28;20063;-72
2021/12/25 11:25:36;;;;;;;8.15;4.90;;;;;;;8.28;nan;99772.06;5047476;28;20065;-72
2021/12/25 11:28:22;;;;;;;7.35;5.00;;;;;;;8.23;nan;99764.88;5050398;28;20033;-73
2021/12/25 11:31:08;;;;;;;11.73;5.90;;;;;;;8.31;nan;99767.19;5047667;28;20033;-73
2021/12/25 11:33:54;;;;;;;9.98;5.95;;;;;;;8.26;nan;99763.63;5040861;28;20411;-72
2021/12/25 11:36:45;;;;;;;11.75;6.82;;;;;;;8.35;nan;99783.25;5052137;28;20454;-71
2021/12/25 11:39:34;;;;;;;18.17;6.30;;;;;;;8.20;nan;99762.72;5050833;28;20554;-73
2021/12/25 11:42:22;;;;;;;8.70;5.68;;;;;;;8.26;nan;99768.88;5049139;28;20041;-71
2021/12/25 11:45:12;;;;;;;10.27;5.75;;;;;;;8.35;nan;99771.97;5051711;28;20044;-71
2021/12/25 11:48:00;;;;;;;10.20;5.80;;;;;;;8.34;nan;99768.56;5051762;28;20115;-72
2021/12/25 11:50:49;;;;;;;9.50;5.75;;;;;;;8.34;nan;99760.69;5040050;28;20270;-72
2021/12/25 11:54:07;;;;;;;10.50;6.45;;;;;;;8.37;nan;99762.06;5042526;28;20440;-71
2021/12/25 11:57:32;;;;;;;9.10;5.55;;;;;;;8.32;nan;99741.75;5039144;28;20489;-72
2021/12/25 12:00:10;;;;;;;11.18;6.50;;;;;;;8.31;nan;99730.47;5042151;28;20495;-71
2021/12/25 12:02:56;;;;;;;12.77;6.85;;;;;;;8.45;nan;99740.75;5050184;28;20166;-71
2021/12/25 12:05:47;;;;;;;13.85;6.28;;;;;;;8.49;nan;99740.09;5050672;28;20042;-71
2021/12/25 12:08:59;;;;;;;9.05;6.00;;;;;;;8.52;nan;99744.06;5042692;28;20064;-72
2021/12/25 12:11:47;;;;;;;13.63;6.95;;;;;;;;;;5036805;28;20025;-72
2021/12/25 12:14:33;;;;;;;11.85;6.38;;;;;;;;;;5036987;28;20037;-71
2021/12/25 12:17:19;;;;;;;11.13;6.47;;;;;;;;;;5036781;28;20033;-71
2021/12/25 12:20:06;;;;;;;11.93;6.00;;;;;;;;;;5040530;28;20045;-71
2021/12/25 12:23:02;;;;;;;12.30;6.60;;;;;;;8.57;nan;99738.97;5048282;28;20393;-71
2021/12/25 12:26:01;;;;;;;12.32;6.10;;;;;;;8.57;nan;99749.47;5045719;28;20042;-68
2021/12/25 12:28:54;;;;;;;9.85;5.60;;;;;;;8.64;nan;99765.91;5038242;28;20029;-71
2021/12/25 12:31:45;;;;;;;13.50;6.15;;;;;;;8.57;nan;99754.72;5045177;28;20098;-71
2021/12/25 12:34:39;;;;;;;10.05;6.10;;;;;;;8.64;nan;99771.16;5051041;28;20048;-72
2021/12/25 12:37:25;;;;;;;9.30;5.78;;;;;;;8.65;nan;99764.06;5047661;28;20033;-72
2021/12/25 12:40:21;;;;;;;9.13;5.72;;;;;;;8.55;nan;99751.50;5038531;28;20029;-72
2021/12/25 12:43:06;;;;;;;8.57;5.57;;;;;;;8.55;nan;99758.56;5055029;28;20033;-72
2021/12/25 12:45:53;;;;;;;10.00;5.88;;;;;;;8.55;nan;99753.31;5042664;28;20163;-72
2021/12/25 12:48:38;;;;;;;8.63;5.68;;;;;;;8.50;nan;99744.31;5040800;28;20107;-72
2021/12/25 12:51:24;;;;;;;12.13;5.72;;;;;;;8.26;nan;99703.28;5042734;28;20038;-69
2021/12/25 12:54:10;;;;;;;10.57;5.85;;;;;;;8.43;nan;99734.97;5041225;28;20036;-70
2021/12/25 12:57:03;;;;;;;10.32;5.80;;;;;;;8.46;nan;99743.16;5051934;28;20040;-72
2021/12/25 12:59:59;;;;;;;12.02;6.30;;;;;;;8.51;nan;99739.88;5053275;28;20041;-72
2021/12/25 13:02:48;;;;;;;10.80;5.90;;;;;;;8.49;nan;99734.03;5051988;28;20049;-71
2021/12/25 13:05:41;;;;;;;10.25;5.55;;;;;;;8.44;nan;99728.69;5052328;28;20068;-71
2021/12/25 13:08:31;;;;;;;8.90;5.40;;;;;;;8.44;nan;99718.19;5046153;28;20033;-71
2021/12/25 13:11:24;;;;;;;8.88;5.80;;;;;;;8.47;nan;99720.34;5052333;28;20124;-73
2021/12/25 13:14:17;;;;;;;10.88;6.00;;;;;;;8.48;nan;99729.84;5049516;28;20048;-72
2021/12/25 13:17:07;;;;;;;12.27;6.03;;;;;;;8.43;nan;99735.75;5049029;28;20086;-73
2021/12/25 13:19:53;;;;;;;10.82;6.15;;;;;;;8.29;nan;99714.16;5050491;28;20032;-72
2021/12/25 13:22:39;;;;;;;9.20;5.97;;;;;;;8.37;nan;99723.50;5050200;28;20083;-70
2021/12/25 13:25:25;;;;;;;11.30;6.60;;;;;;;8.39;nan;99728.53;5052267;28;20040;-72
2021/12/25 13:28:11;;;;;;;11.60;6.70;;;;;;;8.38;nan;99740.84;5046202;28;20384;-71
2021/12/25 13:31:04;;;;;;;11.80;6.32;;;;;;;8.37;nan;99738.44;5051149;28;20043;-72
2021/12/25 13:33:59;;;;;;;12.48;5.90;;;;;;;8.41;nan;99753.53;5048806;28;20048;-71
2021/12/25 13:36:51;;;;;;;10.38;6.32;;;;;;;8.37;nan;99743.69;5042855;28;20029;-72
2021/12/25 13:39:39;;;;;;;12.05;6.55;;;;;;;8.33;nan;99745.97;5037733;28;20112;-72
2021/12/25 13:42:25;;;;;;;10.05;6.10;;;;;;;8.26;nan;99746.09;5036098;28;20033;-72
2021/12/25 13:45:11;;;;;;;9.38;6.05;;;;;;;8.28;nan;99748.47;5036010;28;20098;-72
2021/12/25 13:47:57;;;;;;;10.27;6.18;;;;;;;8.40;nan;99767.66;5046704;28;20045;-73
2021/12/25 13:50:44;;;;;;;10.15;7.00;;;;;;;8.36;nan;99757.84;5043943;28;20479;-72
2021/12/25 13:53:31;;;;;;;12.35;7.10;;;;;;;8.36;nan;99758.63;5050882;28;20479;-70
2021/12/25 13:56:17;;;;;;;11.32;6.15;;;;;;;8.42;nan;99768.25;5044197;28;20495;-72
2021/12/25 13:59:09;;;;;;;13.18;6.15;;;;;;;8.39;nan;99757.38;5042791;28;20044;-70
2021/12/25 14:02:08;;;;;;;12.88;6.85;;;;;;;8.41;nan;99760.63;5047035;28;20559;-72
2021/12/25 14:04:56;;;;;;;11.90;6.85;;;;;;;8.26;nan;99755.75;5049845;28;20583;-73
2021/12/25 14:07:42;;;;;;;16.17;7.97;;;;;;;8.39;nan;99767.88;5039055;28;20052;-72
2021/12/25 14:10:31;;;;;;;10.65;7.20;;;;;;;8.43;nan;99772.50;5033821;28;20037;-74
2021/12/25 14:13:21;;;;;;;12.87;7.37;;;;;;;8.17;nan;99723.81;5037413;28;20483;-72
2021/12/25 14:16:07;;;;;;;13.95;7.53;;;;;;;8.40;nan;99767.66;5034015;28;20121;-74
2021/12/25 14:18:53;;;;;;;16.45;7.75;;;;;;;8.36;nan;99756.03;5034587;28;20029;-73
2021/12/25 14:21:50;;;;;;;14.55;7.53;;;;;;;8.45;nan;99764.38;5041708;28;20041;-74
2021/12/25 14:24:46;;;;;;;13.48;7.15;;;;;;;8.44;nan;99758.34;5030606;28;20028;-73
2021/12/25 14:27:32;;;;;;;13.48;7.78;;;;;;;8.48;nan;99762.09;5032465;28;20077;-73
2021/12/25 14:30:17;;;;;;;13.60;7.53;;;;;;;8.41;nan;99745.66;5036015;28;20116;-74
2021/12/25 14:33:04;;;;;;;15.05;8.38;;;;;;;8.49;nan;99747.16;5033896;28;20051;-73
2021/12/25 14:35:50;;;;;;;13.88;8.25;;;;;;;8.46;nan;99750.25;5043924;28;20033;-75
2021/12/25 14:38:46;;;;;;;17.00;8.68;;;;;;;8.48;nan;99758.69;5042763;28;20463;-72
2021/12/25 14:41:35;;;;;;;12.98;8.52;;;;;;;8.46;nan;99751.03;5048554;28;20025;-74
2021/12/25 14:44:31;;;;;;;15.68;8.80;;;;;;;8.51;nan;99751.16;5040266;28;20037;-76
2021/12/25 14:47:18;;;;;;;12.88;7.35;;;;;;;8.43;nan;99741.00;5047708;28;20033;-74
2021/12/25 14:50:13;;;;;;;14.13;8.05;;;;;;;8.52;nan;99754.56;5056644;28;20041;-77